Padua, Illinois
Current Conditions -  °F | °C
As of 8:56 PM on Sunday 21 Dec 2014 (Local Time) from KBMI Reporting Station
Overcast Overcast  
Wind Chill: 24°   Ceiling: 3900
Heat Index: 33°   Visibility: 9mi
Dew Point: 30°   Wind: 12mph
Humidity: 89%   Direction: 160°SSE
Pressure: 30.02"   Gusts: NA
Location:  40.4429°N, 88.7467°W
Report Text: KBMI 220256Z 16010KT 9SM OVC039 01/M01 A3002 RMK AO2 58009 T00051011 SLP183
Loading
Personal Weather Stations






























Interactive Weather Map New forecast layout! Learn more

10-Day Weather Forecast

Advertisements
Track Severe Weather on mobile